Time;durP1;ratioP1;P1;durP2;ratioP2;P2;SDS_P1;SDS_P2;PMS_P1;PMS_P2;Temp;Humidity;BMP_temperature;BMP_pressure;BME280_temperature;BME280_humidity;BME280_pressure;Samples;Min_cycle;Max_cycle;Signal;HPM_P1;HPM_P2
2021/04/21 00:00:36;;;;;;;;;23.50;21.75;;;;;;;;8849836;40;10473;-53
2021/04/21 00:06:41;;;;;;;;;22.75;21.75;;;;;;;;8852276;40;10399;-53
2021/04/21 00:12:43;;;;;;;;;23.25;23.25;;;;;;;;8875602;40;10311;-49
2021/04/21 00:18:45;;;;;;;;;20.50;19.00;;;;;;;;8874250;40;10452;-54
2021/04/21 00:24:50;;;;;;;;;24.00;23.50;;;;;;;;8874919;40;11177;-53
2021/04/21 00:30:53;;;;;;;;;24.50;22.50;;;;;;;;8875214;40;10351;-52
2021/04/21 00:36:56;;;;;;;;;24.00;23.75;;;;;;;;8874533;40;10288;-53
2021/04/21 00:43:05;;;;;;;;;18.00;18.00;;;;;;;;8874721;40;10417;-50
2021/04/21 00:49:15;;;;;;;;;27.75;23.25;;;;;;;;8875830;40;10443;-50
2021/04/21 00:55:20;;;;;;;;;31.50;24.50;;;;;;;;8876026;40;10443;-50
2021/04/21 01:01:22;;;;;;;;;19.25;19.25;;;;;;;;8865017;40;10863;-49
2021/04/21 01:07:28;;;;;;;;;27.50;24.50;;;;;;;;8875664;40;10329;-52
2021/04/21 01:13:35;;;;;;;;;30.00;27.50;;;;;;;;8864397;40;10640;-51
2021/04/21 01:19:37;;;;;;;;;26.00;26.00;;;;;;;;8873711;40;10374;-53
2021/04/21 01:26:07;;;;;;;;;28.25;26.25;;;;;;;;8875292;40;10389;-51
2021/04/21 01:32:16;;;;;;;;;22.25;22.00;;;;;;;;8875392;40;10392;-52
2021/04/21 01:38:20;;;;;;;;;24.25;22.25;;;;;;;;8874430;40;10425;-54
2021/04/21 01:44:27;;;;;;;;;29.00;23.25;;;;;;;;8873036;40;10410;-52
2021/04/21 01:50:29;;;;;;;;;30.00;29.25;;;;;;;;8873615;40;10404;-51
2021/04/21 01:56:40;;;;;;;;;29.00;25.50;;;;;;;;8873119;40;11236;-48
2021/04/21 02:02:47;;;;;;;;;34.75;32.25;;;;;;;;8864247;40;10411;-52
2021/04/21 02:09:16;;;;;;;;;34.50;31.00;;;;;;;;8874909;40;10351;-52
2021/04/21 02:15:36;;;;;;;;;34.00;30.50;;;;;;;;8873565;40;10460;-50
2021/04/21 02:21:53;;;;;;;;;33.75;31.25;;;;;;;;8864086;40;10304;-50
2021/04/21 02:28:31;;;;;;;;;38.50;36.50;;;;;;;;8877147;40;10620;-51
2021/04/21 02:35:00;;;;;;;;;43.00;40.00;;;;;;;;8875983;40;10427;-51
2021/04/21 02:41:08;;;;;;;;;46.75;40.00;;;;;;;;8875198;40;10486;-52
2021/04/21 02:47:32;;;;;;;;;41.75;39.50;;;;;;;;8877685;40;10457;-51
2021/04/21 02:53:47;;;;;;;;;41.75;38.75;;;;;;;;8876607;40;10500;-51
2021/04/21 02:59:55;;;;;;;;;42.50;38.00;;;;;;;;8877798;40;10461;-52
2021/04/21 03:06:22;;;;;;;;;39.00;35.25;;;;;;;;8874762;40;10405;-51
2021/04/21 03:12:27;;;;;;;;;40.50;37.50;;;;;;;;8877299;40;10456;-48
2021/04/21 03:18:30;;;;;;;;;36.50;34.25;;;;;;;;8867421;40;10403;-52
2021/04/21 03:24:37;;;;;;;;;44.25;40.00;;;;;;;;8875937;40;10483;-53
2021/04/21 03:30:40;;;;;;;;;43.75;38.25;;;;;;;;8877298;40;10818;-52
2021/04/21 03:36:43;;;;;;;;;34.25;32.50;;;;;;;;8875938;40;10476;-52
2021/04/21 03:42:45;;;;;;;;;38.00;35.50;;;;;;;;8877160;40;10936;-52
2021/04/21 03:48:47;;;;;;;;;37.25;32.75;;;;;;;;8875917;40;10405;-54
2021/04/21 03:54:51;;;;;;;;;38.50;34.50;;;;;;;;8874770;40;10389;-54
2021/04/21 04:07:40;;;;;;;;;34.00;33.00;;;;;;;;8639314;40;10465;-56
2021/04/21 04:13:46;;;;;;;;;28.75;26.00;;;;;;;;8742183;40;10569;-57
2021/04/21 04:19:51;;;;;;;;;24.75;22.00;;;;;;;;8730845;40;10546;-57
2021/04/21 04:25:57;;;;;;;;;45.25;35.00;;;;;;;;8752529;40;10423;-58
2021/04/21 04:32:02;;;;;;;;;37.00;36.00;;;;;;;;8737240;40;10503;-55
2021/04/21 04:38:05;;;;;;;;;35.75;32.75;;;;;;;;8732886;40;10525;-57
2021/04/21 04:44:07;;;;;;;;;45.50;42.25;;;;;;;;8739646;40;10576;-58
2021/04/21 04:50:18;;;;;;;;;41.00;36.75;;;;;;;;8727616;40;10432;-55
2021/04/21 04:56:21;;;;;;;;;39.50;39.00;;;;;;;;8727883;40;10679;-56
2021/04/21 05:02:25;;;;;;;;;47.75;43.25;;;;;;;;8731958;40;10415;-55
2021/04/21 05:08:48;;;;;;;;;51.50;42.50;;;;;;;;8753068;40;10585;-59
2021/04/21 05:14:53;;;;;;;;;45.75;39.50;;;;;;;;8761329;40;10568;-53
2021/04/21 05:21:19;;;;;;;;;53.75;41.75;;;;;;;;8752293;40;10507;-57
2021/04/21 05:27:50;;;;;;;;;44.75;38.00;;;;;;;;8750832;40;10666;-59
2021/04/21 05:34:29;;;;;;;;;50.25;42.75;;;;;;;;8751985;40;10563;-57
2021/04/21 05:40:53;;;;;;;;;45.00;40.25;;;;;;;;8751426;40;10472;-58
2021/04/21 05:47:28;;;;;;;;;37.25;32.75;;;;;;;;8742114;40;10482;-55
2021/04/21 05:53:38;;;;;;;;;44.50;40.75;;;;;;;;8751770;40;10535;-57
2021/04/21 05:59:59;;;;;;;;;48.50;43.25;;;;;;;;8775823;40;10725;-58
2021/04/21 06:06:04;;;;;;;;;59.75;48.75;;;;;;;;8753778;40;10550;-57
2021/04/21 06:12:09;;;;;;;;;47.75;39.50;;;;;;;;8756444;40;10443;-55
2021/04/21 06:18:11;;;;;;;;;44.50;38.75;;;;;;;;8754951;40;10554;-57
2021/04/21 06:24:25;;;;;;;;;48.00;38.50;;;;;;;;8764265;40;10537;-57
2021/04/21 06:30:27;;;;;;;;;37.00;36.00;;;;;;;;8756218;40;10731;-54
2021/04/21 06:36:34;;;;;;;;;36.50;33.50;;;;;;;;8750662;40;10599;-59
2021/04/21 06:42:36;;;;;;;;;40.50;34.75;;;;;;;;8752991;40;10543;-55
2021/04/21 06:48:38;;;;;;;;;41.25;36.00;;;;;;;;8751078;40;10676;-55
2021/04/21 06:54:42;;;;;;;;;40.75;36.50;;;;;;;;8751834;40;10653;-56
2021/04/21 07:00:43;;;;;;;;;40.75;38.25;;;;;;;;8751976;40;10637;-59
2021/04/21 07:06:46;;;;;;;;;47.25;40.25;;;;;;;;8750308;40;10498;-59
2021/04/21 07:12:47;;;;;;;;;37.00;31.67;;;;;;;;8762119;40;10357;-55
2021/04/21 07:18:53;;;;;;;;;30.67;27.00;;;;;;;;8749908;40;10054;-55
2021/04/21 07:24:56;;;;;;;;;26.33;25.00;;;;;;;;8755011;40;10063;-55
2021/04/21 07:31:10;;;;;;;;;24.00;22.33;;;;;;;;8747528;40;10023;-51
2021/04/21 07:37:12;;;;;;;;;31.33;25.00;;;;;;;;8747155;40;10000;-55
2021/04/21 07:43:19;;;;;;;;;20.33;19.67;;;;;;;;8738868;40;9958;-55
2021/04/21 07:49:29;;;;;;;;;18.33;16.67;;;;;;;;8750592;40;9967;-58
2021/04/21 07:55:31;;;;;;;;;29.67;27.67;;;;;;;;8749600;40;9943;-57
2021/04/21 08:01:36;;;;;;;;;20.33;19.00;;;;;;;;8754028;40;10013;-60
2021/04/21 08:07:56;;;;;;;;;28.00;25.33;;;;;;;;8773904;40;10231;-56
2021/04/21 08:14:00;;;;;;;;;25.00;21.00;;;;;;;;8763579;40;10000;-55
2021/04/21 08:20:01;;;;;;;;;16.67;16.67;;;;;;;;8749751;40;9955;-55
2021/04/21 08:26:03;;;;;;;;;25.33;21.33;;;;;;;;8753871;40;9877;-56
2021/04/21 08:32:06;;;;;;;;;20.00;19.67;;;;;;;;8754816;40;10009;-56
2021/04/21 08:38:07;;;;;;;;;19.67;17.33;;;;;;;;8749446;40;10828;-53
2021/04/21 08:44:11;;;;;;;;;16.00;16.00;;;;;;;;8740984;40;10047;-51
2021/04/21 08:50:12;;;;;;;;;23.33;22.33;;;;;;;;8747874;40;10102;-52
2021/04/21 08:56:17;;;;;;;;;19.67;19.67;;;;;;;;8748257;40;9875;-56
2021/04/21 09:02:19;;;;;;;;;18.67;18.33;;;;;;;;8771835;40;9985;-56
2021/04/21 09:08:21;;;;;;;;;13.33;13.00;;;;;;;;8770648;40;9937;-56
2021/04/21 09:14:23;;;;;;;;;10.67;9.67;;;;;;;;8765491;40;9969;-59
2021/04/21 09:20:26;;;;;;;;;15.00;13.00;;;;;;;;8751202;40;9999;-57
2021/04/21 09:26:34;;;;;;;;;14.67;9.67;;;;;;;;8747129;40;9861;-59
2021/04/21 09:32:47;;;;;;;;;15.33;13.33;;;;;;;;8747393;40;9972;-59
2021/04/21 09:38:49;;;;;;;;;14.67;14.00;;;;;;;;8747452;40;9985;-57
2021/04/21 09:44:52;;;;;;;;;16.00;16.00;;;;;;;;8749400;40;10027;-57
2021/04/21 09:51:00;;;;;;;;;17.00;14.33;;;;;;;;8748514;40;9959;-55
2021/04/21 09:57:14;;;;;;;;;18.00;17.00;;;;;;;;8768297;40;9810;-56
2021/04/21 10:03:22;;;;;;;;;25.33;23.00;;;;;;;;8771341;40;9983;-54
2021/04/21 10:09:37;;;;;;;;;20.33;19.33;;;;;;;;8771973;40;9940;-59
2021/04/21 10:15:39;;;;;;;;;22.00;21.00;;;;;;;;8760704;40;10095;-57
2021/04/21 10:21:41;;;;;;;;;17.67;17.00;;;;;;;;8747275;40;10574;-58
2021/04/21 10:27:43;;;;;;;;;17.33;17.33;;;;;;;;8748573;40;10633;-58
2021/04/21 10:33:48;;;;;;;;;22.75;17.25;;;;;;;;8758918;40;10924;-56
2021/04/21 10:39:53;;;;;;;;;18.50;16.75;;;;;;;;8765085;40;11868;-56
2021/04/21 10:45:56;;;;;;;;;19.33;17.33;;;;;;;;8749137;40;10535;-57
2021/04/21 10:52:16;;;;;;;;;23.00;19.33;;;;;;;;8764962;40;10181;-57
2021/04/21 10:58:18;;;;;;;;;20.75;19.00;;;;;;;;8776015;40;11635;-58
2021/04/21 11:05:02;;;;;;;;;21.25;20.00;;;;;;;;8766154;40;10999;-55
2021/04/21 11:11:06;;;;;;;;;19.00;16.25;;;;;;;;8743426;40;10829;-56
2021/04/21 11:17:07;;;;;;;;;23.33;21.00;;;;;;;;8751549;40;10133;-58
2021/04/21 11:23:47;;;;;;;;;16.75;16.50;;;;;;;;8751576;40;10824;-55
2021/04/21 11:29:49;;;;;;;;;23.25;19.25;;;;;;;;8760293;40;10866;-58
2021/04/21 11:35:50;;;;;;;;;22.50;19.00;;;;;;;;8756588;40;11139;-55
2021/04/21 11:41:52;;;;;;;;;18.75;17.00;;;;;;;;8750800;40;10769;-57
2021/04/21 11:48:07;;;;;;;;;18.75;18.75;;;;;;;;8755581;40;10961;-58
2021/04/21 11:54:09;;;;;;;;;15.75;13.75;;;;;;;;8751017;40;10692;-56
2021/04/21 12:00:11;;;;;;;;;12.00;11.00;;;;;;;;8751172;40;10625;-63
2021/04/21 12:06:15;;;;;;;;;19.25;18.00;;;;;;;;8751489;40;10764;-59
2021/04/21 12:12:25;;;;;;;;;19.00;18.00;;;;;;;;8755110;40;10588;-57
2021/04/21 12:18:33;;;;;;;;;18.00;18.00;;;;;;;;8753490;40;10590;-56
2021/04/21 12:24:34;;;;;;;;;17.33;17.33;;;;;;;;8754869;40;10763;-53
2021/04/21 12:30:36;;;;;;;;;21.67;18.67;;;;;;;;8773240;40;10331;-54
2021/04/21 12:36:47;;;;;;;;;15.33;13.67;;;;;;;;8758129;40;9980;-56
2021/04/21 12:42:50;;;;;;;;;19.00;19.00;;;;;;;;8749355;40;10568;-57
2021/04/21 12:48:55;;;;;;;;;20.33;19.33;;;;;;;;8749201;40;10360;-57
2021/04/21 12:54:56;;;;;;;;;15.00;15.00;;;;;;;;8755535;40;10863;-56
2021/04/21 13:01:11;;;;;;;;;18.67;18.67;;;;;;;;8772842;40;10577;-58
2021/04/21 13:07:22;;;;;;;;;12.67;12.33;;;;;;;;8775368;40;9892;-55
2021/04/21 13:13:31;;;;;;;;;10.50;10.50;;;;;;;;8772459;40;11122;-57
2021/04/21 13:19:35;;;;;;;;;15.00;14.00;;;;;;;;8764602;40;10120;-56
2021/04/21 13:26:07;;;;;;;;;17.67;14.00;;;;;;;;8756519;40;10005;-54
2021/04/21 13:32:13;;;;;;;;;15.00;15.00;;;;;;;;8773075;40;10574;-60
2021/04/21 13:38:15;;;;;;;;;11.00;11.00;;;;;;;;8772639;40;10016;-54
2021/04/21 13:44:16;;;;;;;;;12.00;12.00;;;;;;;;8773914;40;9945;-56
2021/04/21 13:50:19;;;;;;;;;9.33;9.33;;;;;;;;8754618;40;9872;-59
2021/04/21 13:56:21;;;;;;;;;10.33;9.67;;;;;;;;8749468;40;10133;-61
2021/04/21 14:02:26;;;;;;;;;12.67;12.67;;;;;;;;8749769;40;9870;-58
2021/04/21 14:08:27;;;;;;;;;10.00;9.67;;;;;;;;8751372;40;9981;-59
2021/04/21 14:14:29;;;;;;;;;16.67;12.00;;;;;;;;8764495;40;10128;-57
2021/04/21 14:20:31;;;;;;;;;11.67;11.67;;;;;;;;8777826;40;9876;-58
2021/04/21 14:26:33;;;;;;;;;14.00;13.00;;;;;;;;8779156;40;10794;-58
2021/04/21 14:32:34;;;;;;;;;10.67;10.67;;;;;;;;8777441;40;10100;-59
2021/04/21 14:38:36;;;;;;;;;10.00;10.00;;;;;;;;8778833;40;10384;-58
2021/04/21 14:44:37;;;;;;;;;9.00;9.00;;;;;;;;8776821;40;9980;-60
2021/04/21 14:50:39;;;;;;;;;11.00;10.00;;;;;;;;8778876;40;9898;-57
2021/04/21 14:56:41;;;;;;;;;13.00;13.00;;;;;;;;8777911;40;9918;-58
2021/04/21 15:02:42;;;;;;;;;11.67;9.00;;;;;;;;8778301;40;9827;-56
2021/04/21 15:08:44;;;;;;;;;12.00;8.33;;;;;;;;8777923;40;10552;-57
2021/04/21 15:14:47;;;;;;;;;13.67;13.67;;;;;;;;8767680;40;10180;-59
2021/04/21 15:20:48;;;;;;;;;10.00;10.00;;;;;;;;8754119;40;9831;-58
2021/04/21 15:26:50;;;;;;;;;10.00;9.67;;;;;;;;8753101;40;9876;-58
2021/04/21 15:32:52;;;;;;;;;12.33;12.00;;;;;;;;8753582;40;10523;-57
2021/04/21 15:38:54;;;;;;;;;11.00;11.00;;;;;;;;8754697;40;9984;-57
2021/04/21 15:44:56;;;;;;;;;12.67;12.33;;;;;;;;8752540;40;10655;-57
2021/04/21 15:50:57;;;;;;;;;14.00;13.00;;;;;;;;8753243;40;10209;-56
2021/04/21 15:57:01;;;;;;;;;17.33;16.67;;;;;;;;8753778;40;10852;-57
2021/04/21 16:03:03;;;;;;;;;16.67;13.67;;;;;;;;8754224;40;9951;-56
2021/04/21 16:09:05;;;;;;;;;16.00;14.33;;;;;;;;8753364;40;9987;-58
2021/04/21 16:15:08;;;;;;;;;19.33;16.33;;;;;;;;8753201;40;10012;-59
2021/04/21 16:21:09;;;;;;;;;17.67;17.00;;;;;;;;8266758;40;20001772;-58
2021/04/21 16:27:11;;;;;;;;;23.33;21.00;;;;;;;;8752462;40;14239;-57
2021/04/21 16:33:13;;;;;;;;;23.67;23.67;;;;;;;;8751913;40;9919;-56
2021/04/21 16:39:14;;;;;;;;;18.33;16.33;;;;;;;;8753219;40;10549;-58
2021/04/21 16:45:17;;;;;;;;;26.00;19.67;;;;;;;;8751821;40;10564;-55
2021/04/21 16:51:19;;;;;;;;;24.33;20.67;;;;;;;;8743115;40;9865;-58
2021/04/21 16:57:20;;;;;;;;;22.67;21.33;;;;;;;;8742755;40;9999;-56
2021/04/21 17:03:24;;;;;;;;;20.00;17.33;;;;;;;;8750955;40;10000;-56
2021/04/21 17:09:25;;;;;;;;;19.67;18.00;;;;;;;;8752724;40;10203;-57
2021/04/21 17:15:27;;;;;;;;;16.67;16.67;;;;;;;;8751313;40;10535;-56
2021/04/21 17:21:29;;;;;;;;;21.67;20.00;;;;;;;;8751971;40;9965;-56
2021/04/21 17:27:31;;;;;;;;;19.00;19.00;;;;;;;;8751255;40;10833;-58
2021/04/21 17:33:32;;;;;;;;;25.00;24.33;;;;;;;;8749667;40;9972;-59
2021/04/21 17:39:34;;;;;;;;;30.00;27.33;;;;;;;;8743187;40;10608;-57
2021/04/21 17:45:42;;;;;;;;;28.00;27.00;;;;;;;;8759954;40;10478;-59
2021/04/21 17:51:45;;;;;;;;;38.25;30.25;;;;;;;;8775969;40;10455;-58
2021/04/21 17:57:47;;;;;;;;;33.25;33.25;;;;;;;;8778712;40;10470;-59
2021/04/21 18:03:49;;;;;;;;;28.75;27.75;;;;;;;;8777974;40;10456;-57
2021/04/21 18:09:50;;;;;;;;;22.67;22.00;;;;;;;;8779341;40;10264;-60
2021/04/21 18:15:53;;;;;;;;;26.67;25.33;;;;;;;;8777904;40;9976;-56
2021/04/21 18:21:55;;;;;;;;;34.00;28.00;;;;;;;;8779154;40;10544;-58
2021/04/21 18:28:00;;;;;;;;;30.50;28.00;;;;;;;;8755493;40;10573;-56
2021/04/21 18:34:02;;;;;;;;;28.00;26.50;;;;;;;;8753951;40;11093;-58
2021/04/21 18:40:08;;;;;;;;;37.50;35.50;;;;;;;;8755728;40;10557;-57
2021/04/21 18:46:12;;;;;;;;;37.75;35.00;;;;;;;;8753213;40;10496;-58
2021/04/21 18:52:14;;;;;;;;;42.75;40.25;;;;;;;;8755006;40;10369;-58
2021/04/21 18:58:17;;;;;;;;;31.00;28.25;;;;;;;;8776982;40;11078;-57
2021/04/21 19:04:18;;;;;;;;;60.75;49.50;;;;;;;;8776596;40;10504;-59
2021/04/21 19:10:21;;;;;;;;;61.25;49.25;;;;;;;;8779934;40;10647;-58
2021/04/21 19:16:22;;;;;;;;;52.25;44.00;;;;;;;;8777161;40;10556;-57
2021/04/21 19:22:24;;;;;;;;;50.50;43.75;;;;;;;;8779034;40;10942;-57
2021/04/21 19:28:26;;;;;;;;;41.75;37.75;;;;;;;;8777965;40;10496;-57
2021/04/21 19:34:28;;;;;;;;;44.75;40.00;;;;;;;;8777096;40;10490;-58
2021/04/21 19:40:31;;;;;;;;;42.00;38.50;;;;;;;;8779182;40;10517;-55
2021/04/21 19:46:33;;;;;;;;;46.50;41.00;;;;;;;;8776513;40;10531;-55
2021/04/21 19:52:36;;;;;;;;;51.50;44.00;;;;;;;;8779213;40;10516;-59
2021/04/21 19:58:39;;;;;;;;;53.00;43.25;;;;;;;;8778028;40;10481;-59
2021/04/21 20:04:41;;;;;;;;;48.75;43.25;;;;;;;;8776712;40;10568;-56
2021/04/21 20:10:44;;;;;;;;;50.50;43.50;;;;;;;;8777771;40;10459;-56
2021/04/21 20:16:45;;;;;;;;;49.75;40.75;;;;;;;;8776277;40;10527;-56
2021/04/21 20:22:47;;;;;;;;;51.00;44.25;;;;;;;;8776497;40;10320;-56
2021/04/21 20:28:49;;;;;;;;;46.50;41.25;;;;;;;;8777324;40;10491;-57
2021/04/21 20:34:51;;;;;;;;;51.00;43.00;;;;;;;;8775531;40;10495;-56
2021/04/21 20:40:52;;;;;;;;;50.00;41.25;;;;;;;;8778228;40;10581;-55
2021/04/21 20:46:54;;;;;;;;;43.25;39.75;;;;;;;;8774639;40;11117;-56
2021/04/21 20:52:55;;;;;;;;;52.50;44.50;;;;;;;;8777216;40;10431;-57
2021/04/21 20:58:57;;;;;;;;;41.50;38.75;;;;;;;;8776735;40;10533;-54
2021/04/21 21:04:58;;;;;;;;;58.75;46.50;;;;;;;;8776437;40;10650;-54
2021/04/21 21:11:00;;;;;;;;;50.50;41.50;;;;;;;;8776294;40;10572;-59
2021/04/21 21:17:01;;;;;;;;;42.25;35.25;;;;;;;;8776438;40;10646;-57
2021/04/21 21:23:03;;;;;;;;;52.50;42.00;;;;;;;;8776272;40;11037;-56
2021/04/21 21:29:05;;;;;;;;;47.25;41.50;;;;;;;;8775216;40;11321;-56
2021/04/21 21:35:09;;;;;;;;;55.50;47.00;;;;;;;;8776041;40;10494;-58
2021/04/21 21:41:12;;;;;;;;;53.75;45.00;;;;;;;;8755402;40;11160;-57
2021/04/21 21:47:15;;;;;;;;;54.75;44.25;;;;;;;;8750848;40;10597;-54
2021/04/21 21:53:16;;;;;;;;;54.00;41.00;;;;;;;;8752344;40;10504;-54
2021/04/21 21:59:17;;;;;;;;;58.75;47.50;;;;;;;;8751250;40;10531;-55
2021/04/21 22:05:19;;;;;;;;;52.50;43.00;;;;;;;;8751347;40;10646;-56
2021/04/21 22:11:23;;;;;;;;;59.75;49.75;;;;;;;;8751552;40;11148;-55
2021/04/21 22:17:25;;;;;;;;;58.50;49.50;;;;;;;;8750218;40;11292;-55
2021/04/21 22:23:27;;;;;;;;;47.25;40.00;;;;;;;;8751072;40;10978;-56
2021/04/21 22:29:28;;;;;;;;;49.00;43.25;;;;;;;;8751710;40;10554;-55
2021/04/21 22:35:31;;;;;;;;;68.25;54.50;;;;;;;;8749736;40;11215;-56
2021/04/21 22:41:32;;;;;;;;;75.75;58.50;;;;;;;;8753474;40;10541;-58
2021/04/21 22:47:34;;;;;;;;;67.75;57.25;;;;;;;;8753564;40;10511;-56
2021/04/21 22:53:36;;;;;;;;;65.75;52.75;;;;;;;;8754145;40;11025;-55
2021/04/21 22:59:37;;;;;;;;;66.00;53.25;;;;;;;;8752965;40;11033;-55
2021/04/21 23:05:39;;;;;;;;;71.25;57.25;;;;;;;;8754362;40;10544;-55
2021/04/21 23:11:40;;;;;;;;;72.00;57.25;;;;;;;;8754498;40;10526;-56
2021/04/21 23:17:42;;;;;;;;;63.75;51.75;;;;;;;;8752878;40;10548;-55
2021/04/21 23:23:44;;;;;;;;;74.00;57.00;;;;;;;;8753787;40;10483;-56
2021/04/21 23:29:48;;;;;;;;;80.00;63.25;;;;;;;;8754109;40;10595;-55
2021/04/21 23:35:50;;;;;;;;;80.75;66.00;;;;;;;;8753835;40;10525;-56
2021/04/21 23:41:51;;;;;;;;;79.50;62.00;;;;;;;;8755727;40;10526;-55
2021/04/21 23:47:53;;;;;;;;;85.50;67.25;;;;;;;;8752422;40;10689;-56
2021/04/21 23:53:58;;;;;;;;;80.25;62.50;;;;;;;;8752938;40;10534;-56
2021/04/21 23:59:59;;;;;;;;;69.25;55.25;;;;;;;;8753309;40;10530;-57
